createdAt,value
2019-01-18T00:01:57.952Z,0.70
2019-01-18T00:04:42.342Z,0.70
2019-01-18T00:07:12.417Z,0.73
2019-01-18T00:09:46.794Z,0.90
2019-01-18T00:12:16.465Z,0.80
2019-01-18T00:14:47.740Z,0.87
2019-01-18T00:17:16.499Z,0.80
2019-01-18T00:19:46.927Z,0.90
2019-01-18T00:22:18.404Z,0.80
2019-01-18T00:24:48.518Z,0.97
2019-01-18T00:27:21.371Z,0.67
2019-01-18T00:29:54.069Z,0.77
2019-01-18T00:32:31.044Z,0.83
2019-01-18T00:35:03.167Z,0.87
2019-01-18T00:37:31.583Z,0.83
2019-01-18T00:40:01.389Z,0.93
2019-01-18T00:42:31.042Z,0.60
2019-01-18T00:44:59.488Z,0.90
2019-01-18T00:47:28.150Z,0.80
2019-01-18T00:49:56.590Z,0.70
2019-01-18T00:52:28.520Z,0.70
2019-01-18T00:54:57.006Z,0.70
2019-01-18T00:57:25.739Z,0.50
2019-01-18T00:59:55.941Z,1.00
2019-01-18T01:02:27.267Z,0.80
2019-01-18T01:04:55.699Z,0.70
2019-01-18T01:07:24.225Z,0.70
2019-01-18T01:09:52.660Z,0.87
2019-01-18T01:12:24.492Z,0.97
2019-01-18T01:14:55.142Z,0.60
2019-01-18T01:17:36.273Z,0.73
2019-01-18T01:20:08.730Z,0.83
2019-01-18T01:22:43.236Z,0.80
2019-01-18T01:25:16.045Z,0.70
2019-01-18T01:27:48.232Z,1.07
2019-01-18T01:30:20.791Z,0.73
2019-01-18T01:32:51.863Z,0.90
2019-01-18T01:35:26.863Z,0.93
2019-01-18T01:37:56.307Z,0.90
2019-01-18T01:40:27.031Z,0.80
2019-01-18T01:43:06.968Z,1.07
2019-01-18T01:45:41.030Z,0.80
2019-01-18T01:48:11.434Z,0.77
2019-01-18T01:50:41.391Z,0.80
2019-01-18T01:53:10.376Z,0.70
2019-01-18T01:55:38.810Z,0.80
2019-01-18T01:58:07.211Z,1.00
2019-01-18T02:00:38.300Z,0.80
2019-01-18T02:03:08.472Z,0.80
2019-01-18T02:05:39.093Z,1.13
2019-01-18T02:08:09.374Z,0.83
2019-01-18T02:10:37.799Z,1.00
2019-01-18T02:13:12.028Z,1.00
2019-01-18T02:15:40.613Z,0.93
2019-01-18T02:18:09.584Z,0.83
2019-01-18T02:20:38.321Z,1.07
2019-01-18T02:23:08.979Z,1.00
2019-01-18T02:25:37.387Z,0.90
2019-01-18T02:28:05.810Z,0.80
2019-01-18T02:30:35.159Z,0.90
2019-01-18T02:33:03.572Z,0.90
2019-01-18T02:35:32.166Z,0.60
2019-01-18T02:38:03.356Z,0.80
2019-01-18T02:40:32.093Z,0.77
2019-01-18T02:43:00.495Z,0.70
2019-01-18T02:45:28.904Z,0.83
2019-01-18T02:47:58.773Z,0.90
2019-01-18T02:50:31.558Z,0.67
2019-01-18T02:53:04.739Z,0.70
2019-01-18T02:55:34.404Z,1.10
2019-01-18T02:58:07.076Z,0.80
2019-01-18T03:00:37.238Z,0.70
2019-01-18T03:03:21.175Z,0.70
2019-01-18T03:05:49.864Z,0.87
2019-01-18T03:08:33.365Z,1.07
2019-01-18T03:11:01.488Z,1.13
2019-01-18T03:13:32.701Z,0.70
2019-01-18T03:16:02.734Z,0.87
2019-01-18T03:18:36.931Z,0.73
2019-01-18T03:21:05.902Z,1.00
2019-01-18T03:23:35.443Z,0.90
2019-01-18T03:26:06.265Z,1.07
2019-01-18T03:28:36.330Z,0.90
2019-01-18T03:31:08.114Z,0.93
2019-01-18T03:33:40.411Z,0.83
2019-01-18T03:36:12.272Z,0.73
2019-01-18T03:38:40.856Z,0.90
2019-01-18T03:41:10.425Z,0.80
2019-01-18T03:43:38.803Z,0.73
2019-01-18T03:46:07.229Z,0.83
2019-01-18T03:48:37.468Z,1.10
2019-01-18T03:51:06.685Z,0.97
2019-01-18T03:53:35.242Z,0.83
2019-01-18T03:56:03.914Z,0.70
2019-01-18T03:58:32.353Z,0.70
2019-01-18T04:01:03.790Z,0.80
2019-01-18T04:03:33.577Z,0.80
2019-01-18T04:06:02.827Z,0.80
2019-01-18T04:08:34.859Z,0.87
2019-01-18T04:11:04.358Z,0.90
2019-01-18T04:13:35.518Z,1.00
2019-01-18T04:16:03.930Z,0.83
2019-01-18T04:18:32.396Z,0.90
2019-01-18T04:21:00.819Z,1.00
2019-01-18T04:23:29.251Z,1.00
2019-01-18T04:25:57.676Z,0.80
2019-01-18T04:28:26.962Z,1.17
2019-01-18T04:30:55.539Z,1.03
2019-01-18T04:33:25.621Z,1.10
2019-01-18T04:35:54.853Z,0.90
2019-01-18T04:38:23.427Z,0.97
2019-01-18T04:40:53.515Z,0.90
2019-01-18T04:43:22.293Z,0.90
2019-01-18T04:45:51.030Z,1.10
2019-01-18T04:48:21.925Z,0.87
2019-01-18T04:50:50.357Z,0.97
2019-01-18T04:53:19.871Z,1.00
2019-01-18T04:55:53.525Z,0.90
2019-01-18T04:58:21.969Z,0.83
2019-01-18T05:00:53.609Z,1.03
2019-01-18T05:03:28.938Z,0.90
2019-01-18T05:06:00.243Z,0.93
2019-01-18T05:08:32.157Z,0.80
2019-01-18T05:11:02.259Z,0.90
2019-01-18T05:13:43.659Z,1.00
2019-01-18T05:16:14.450Z,1.03
2019-01-18T05:18:44.244Z,1.00
2019-01-18T05:21:15.306Z,1.10
2019-01-18T05:23:45.968Z,1.10
2019-01-18T05:26:14.704Z,0.93
2019-01-18T05:28:44.045Z,1.10
2019-01-18T05:31:13.829Z,0.80
2019-01-18T05:33:43.084Z,0.90
2019-01-18T05:36:13.732Z,0.93
2019-01-18T05:38:43.557Z,1.20
2019-01-18T05:41:12.906Z,1.00
2019-01-18T05:43:42.144Z,0.93
2019-01-18T05:46:12.465Z,0.97
2019-01-18T05:48:44.156Z,0.93
2019-01-18T05:51:15.682Z,0.97
2019-01-18T05:53:46.389Z,0.80
2019-01-18T05:56:15.612Z,0.90
2019-01-18T05:58:44.273Z,0.90
2019-01-18T06:01:12.779Z,1.10
2019-01-18T06:03:42.187Z,0.87
2019-01-18T06:06:16.736Z,0.73
2019-01-18T06:08:51.093Z,0.90
2019-01-18T06:11:24.457Z,1.10
2019-01-18T06:13:55.263Z,1.10
2019-01-18T06:16:31.827Z,1.10
2019-01-18T06:19:05.098Z,1.00
2019-01-18T06:21:40.310Z,1.00
2019-01-18T06:24:10.042Z,0.80
2019-01-18T06:26:38.801Z,0.87
2019-01-18T06:29:09.126Z,1.07
2019-01-18T06:31:38.091Z,0.80
2019-01-18T06:34:09.105Z,0.90
2019-01-18T06:36:43.135Z,1.10
2019-01-18T06:39:11.614Z,1.03
2019-01-18T06:41:41.890Z,0.80
2019-01-18T06:44:11.939Z,0.93
2019-01-18T06:46:41.193Z,0.97
2019-01-18T06:49:10.265Z,1.10
2019-01-18T06:51:38.701Z,1.30
2019-01-18T06:54:07.910Z,1.00
2019-01-18T06:56:38.783Z,1.10
2019-01-18T06:59:09.634Z,1.00
2019-01-18T07:01:39.804Z,1.47
2019-01-18T07:04:10.657Z,0.87
2019-01-18T07:06:39.107Z,1.00
2019-01-18T07:09:10.103Z,1.33
2019-01-18T07:11:41.590Z,1.00
2019-01-18T07:14:12.104Z,1.27
2019-01-18T07:16:41.707Z,1.10
2019-01-18T07:19:10.801Z,0.97
2019-01-18T07:21:44.407Z,1.00
2019-01-18T07:24:17.348Z,0.93
2019-01-18T07:26:45.808Z,1.20
2019-01-18T07:29:17.541Z,1.00
2019-01-18T07:31:46.443Z,1.10
2019-01-18T07:34:14.847Z,1.20
2019-01-18T07:36:43.302Z,1.00
2019-01-18T07:39:11.850Z,0.70
2019-01-18T07:41:40.544Z,0.90
2019-01-18T07:44:09.264Z,1.07
2019-01-18T07:46:39.264Z,0.90
2019-01-18T07:49:10.586Z,1.03
2019-01-18T07:51:39.629Z,0.87
2019-01-18T07:54:17.337Z,1.20
2019-01-18T07:56:48.336Z,1.17
2019-01-18T07:59:23.599Z,1.10
2019-01-18T08:01:54.515Z,1.30
2019-01-18T08:04:25.852Z,1.10
2019-01-18T08:06:56.899Z,1.20
2019-01-18T08:09:28.984Z,1.03
2019-01-18T08:12:00.710Z,1.00
2019-01-18T08:14:33.578Z,1.20
2019-01-18T08:17:07.747Z,1.20
2019-01-18T08:19:41.128Z,1.00
2019-01-18T08:22:16.304Z,0.80
2019-01-18T08:24:56.223Z,1.10
2019-01-18T08:27:26.864Z,1.23
2019-01-18T08:29:56.303Z,0.90
2019-01-18T08:32:28.200Z,0.80
2019-01-18T08:35:02.993Z,1.23
2019-01-18T08:37:31.620Z,1.00
2019-01-18T08:40:01.567Z,1.03
2019-01-18T08:42:34.494Z,1.23
2019-01-18T08:45:06.932Z,1.20
2019-01-18T08:47:41.411Z,0.90
2019-01-18T08:50:15.200Z,1.20
2019-01-18T08:52:46.251Z,1.27
2019-01-18T08:55:16.827Z,1.13
2019-01-18T08:57:48.514Z,1.20
2019-01-18T09:00:23.736Z,1.17
2019-01-18T09:02:56.653Z,1.13
2019-01-18T09:05:27.037Z,1.23
2019-01-18T09:07:55.460Z,1.20
2019-01-18T09:10:32.540Z,1.20
2019-01-18T09:13:03.432Z,1.00
2019-01-18T09:15:34.032Z,1.20
2019-01-18T09:18:08.710Z,0.83
2019-01-18T09:20:39.891Z,1.10
2019-01-18T09:23:14.353Z,1.50
2019-01-18T09:25:48.298Z,1.20
2019-01-18T09:28:20.268Z,1.30
2019-01-18T09:30:49.919Z,1.00
2019-01-18T09:33:20.905Z,1.00
2019-01-18T09:35:51.228Z,1.17
2019-01-18T09:38:23.228Z,0.90
2019-01-18T09:40:51.960Z,1.17
2019-01-18T09:43:25.371Z,1.07
2019-01-18T09:45:54.356Z,0.70
2019-01-18T09:48:25.796Z,1.10
2019-01-18T09:51:00.483Z,0.87
2019-01-18T09:53:35.307Z,1.03
2019-01-18T09:56:03.708Z,1.20
2019-01-18T09:58:33.241Z,1.00
2019-01-18T10:01:06.933Z,1.00
2019-01-18T10:03:42.101Z,0.80
2019-01-18T10:06:16.898Z,0.97
2019-01-18T10:08:46.179Z,0.90
2019-01-18T10:11:20.293Z,1.10
2019-01-18T10:13:48.726Z,1.10
2019-01-18T10:16:18.965Z,1.00
2019-01-18T10:18:52.055Z,1.00
2019-01-18T10:21:22.092Z,1.00
2019-01-18T10:23:50.523Z,1.30
2019-01-18T10:26:20.059Z,1.10
2019-01-18T10:28:49.910Z,1.10
2019-01-18T10:31:18.310Z,1.20
2019-01-18T10:33:46.734Z,1.00
2019-01-18T10:36:16.790Z,0.90
2019-01-18T10:38:45.466Z,1.17
2019-01-18T10:41:14.089Z,1.03
2019-01-18T10:43:42.773Z,1.30
2019-01-18T10:46:11.211Z,1.20
2019-01-18T10:48:39.626Z,0.90
2019-01-18T10:51:09.352Z,1.37
2019-01-18T10:53:38.992Z,1.07
2019-01-18T10:56:07.455Z,1.10
2019-01-18T10:58:35.866Z,1.20
2019-01-18T11:01:06.494Z,1.30
2019-01-18T11:03:34.910Z,1.10
2019-01-18T11:06:03.385Z,0.80
2019-01-18T11:08:32.063Z,0.90
2019-01-18T11:11:00.499Z,0.80
2019-01-18T11:13:28.894Z,1.10
2019-01-18T11:15:57.606Z,0.93
2019-01-18T11:18:26.015Z,1.10
2019-01-18T11:20:56.484Z,0.97
2019-01-18T11:23:24.983Z,0.87
2019-01-18T11:25:54.401Z,0.90
2019-01-18T11:28:23.852Z,1.10
2019-01-18T11:30:52.296Z,0.90
2019-01-18T11:33:21.209Z,1.03
2019-01-18T11:35:56.936Z,1.00
2019-01-18T11:38:22.954Z,0.83
2019-01-18T11:40:51.401Z,0.90
2019-01-18T11:43:20.978Z,1.37
2019-01-18T11:45:49.421Z,0.90
2019-01-18T11:48:17.837Z,0.70
2019-01-18T11:50:49.795Z,1.00
2019-01-18T11:53:18.288Z,0.80
2019-01-18T11:55:48.493Z,1.30
2019-01-18T11:58:16.944Z,1.00
2019-01-18T12:03:42.826Z,0.97
2019-01-18T12:06:11.196Z,1.00
2019-01-18T12:08:41.993Z,1.00
2019-01-18T12:11:10.776Z,1.20
2019-01-18T12:13:39.228Z,0.93
2019-01-18T12:16:07.665Z,0.83
2019-01-18T12:18:37.698Z,0.80
2019-01-18T12:21:06.668Z,1.10
2019-01-18T12:23:38.394Z,1.10
2019-01-18T12:26:06.821Z,0.97
2019-01-18T12:28:36.488Z,1.00
2019-01-18T12:31:04.913Z,0.80
2019-01-18T12:33:34.506Z,0.90
2019-01-18T12:36:03.042Z,1.10
2019-01-18T12:38:31.449Z,1.00
2019-01-18T12:41:01.349Z,1.20
2019-01-18T12:43:30.057Z,1.00
2019-01-18T12:45:58.483Z,0.90
2019-01-18T12:48:26.903Z,1.10
2019-01-18T12:50:55.610Z,1.27
2019-01-18T12:53:24.035Z,1.00
2019-01-18T12:55:53.216Z,0.93
2019-01-18T12:58:22.670Z,0.80
2019-01-18T13:00:52.652Z,0.83
2019-01-18T13:03:21.055Z,0.80
2019-01-18T13:05:50.312Z,1.00
2019-01-18T13:08:18.916Z,0.93
2019-01-18T13:10:47.625Z,0.90
2019-01-18T13:13:16.868Z,1.00
2019-01-18T13:16:00.776Z,1.00
2019-01-18T13:18:30.572Z,0.80
2019-01-18T13:20:59.273Z,0.93
2019-01-18T13:23:32.379Z,1.10
2019-01-18T13:26:10.248Z,1.07
2019-01-18T13:28:38.706Z,0.90
2019-01-18T13:31:07.932Z,1.27
2019-01-18T13:33:40.855Z,1.37
2019-01-18T13:36:12.490Z,1.20
2019-01-18T13:38:43.980Z,1.27
2019-01-18T13:41:12.370Z,1.10
2019-01-18T13:43:40.804Z,1.40
2019-01-18T13:46:09.232Z,1.17
2019-01-18T13:48:37.797Z,1.20
2019-01-18T13:51:06.184Z,1.20
2019-01-18T13:53:34.886Z,1.20
2019-01-18T13:56:03.228Z,1.10
2019-01-18T13:58:34.926Z,1.10
2019-01-18T14:01:03.363Z,1.23
2019-01-18T14:03:35.623Z,1.20
2019-01-18T14:06:05.667Z,1.37
2019-01-18T14:08:35.724Z,0.93
2019-01-18T14:11:07.738Z,1.10
2019-01-18T14:13:37.558Z,1.23
2019-01-18T14:16:09.267Z,1.10
2019-01-18T14:18:37.711Z,1.20
2019-01-18T14:21:06.913Z,0.90
2019-01-18T14:23:36.354Z,1.23
2019-01-18T14:26:06.264Z,0.90
2019-01-18T14:28:35.724Z,1.30
2019-01-18T14:31:05.346Z,1.10
2019-01-18T14:33:34.341Z,1.20
2019-01-18T14:36:04.397Z,1.10
2019-01-18T14:38:34.940Z,1.17
2019-01-18T14:41:04.170Z,1.33
2019-01-18T14:43:33.734Z,1.10
2019-01-18T14:46:03.298Z,1.00
2019-01-18T14:48:33.341Z,1.20
2019-01-18T14:51:02.896Z,1.23
2019-01-18T14:53:35.013Z,1.13
2019-01-18T14:56:06.518Z,1.20
2019-01-18T14:58:41.130Z,1.17
2019-01-18T15:01:09.852Z,1.07
2019-01-18T15:03:38.322Z,1.00
2019-01-18T15:06:09.738Z,0.90
2019-01-18T15:08:38.243Z,0.90
2019-01-18T15:11:08.849Z,1.10
2019-01-18T15:13:37.514Z,1.17
2019-01-18T15:16:05.947Z,1.53
2019-01-18T15:18:36.241Z,1.40
2019-01-18T15:21:04.677Z,1.20
2019-01-18T15:23:33.371Z,1.07
2019-01-18T15:26:03.293Z,1.27
2019-01-18T15:28:31.697Z,1.30
2019-01-18T15:31:01.167Z,1.10
2019-01-18T15:33:29.607Z,1.07
2019-01-18T15:35:58.059Z,1.13
2019-01-18T15:38:27.691Z,1.20
2019-01-18T15:40:57.172Z,1.30
2019-01-18T15:43:25.956Z,1.03
2019-01-18T15:45:54.645Z,1.20
2019-01-18T15:48:23.056Z,1.10
2019-01-18T15:50:53.114Z,1.13
2019-01-18T15:53:23.267Z,1.30
2019-01-18T15:55:51.716Z,1.10
2019-01-18T15:58:20.684Z,1.27
2019-01-18T16:00:50.763Z,1.07
2019-01-18T16:03:19.308Z,1.50
2019-01-18T16:05:48.025Z,1.30
2019-01-18T16:08:16.432Z,1.00
2019-01-18T16:10:45.867Z,1.23
2019-01-18T16:13:15.050Z,1.10
2019-01-18T16:15:46.773Z,1.30
2019-01-18T16:18:18.488Z,1.00
2019-01-18T16:20:49.859Z,1.10
2019-01-18T16:23:19.255Z,1.10
2019-01-18T16:25:52.034Z,1.23
2019-01-18T16:28:20.467Z,1.20
2019-01-18T16:30:50.355Z,1.40
2019-01-18T16:33:23.577Z,1.40
2019-01-18T16:35:53.825Z,1.07
2019-01-18T16:38:22.245Z,0.97
2019-01-18T16:41:29.971Z,1.50
2019-01-18T16:43:58.401Z,1.20
2019-01-18T16:46:29.052Z,1.20
2019-01-18T16:48:58.915Z,1.20
2019-01-18T16:51:28.478Z,1.10
2019-01-18T16:53:56.904Z,1.00
2019-01-18T16:56:26.711Z,1.20
2019-01-18T16:59:05.259Z,1.00
2019-01-18T17:01:33.951Z,1.23
2019-01-18T17:04:02.351Z,1.30
2019-01-18T17:06:30.788Z,1.33
2019-01-18T17:08:59.203Z,1.30
2019-01-18T17:11:27.615Z,1.70
2019-01-18T17:13:56.495Z,1.47
2019-01-18T17:16:25.699Z,1.13
2019-01-18T17:18:57.085Z,1.50
2019-01-18T17:21:25.500Z,1.20
2019-01-18T17:23:53.935Z,1.40
2019-01-18T17:26:25.149Z,1.40
2019-01-18T17:28:53.707Z,1.47
2019-01-18T17:31:35.944Z,1.50
2019-01-18T17:34:04.109Z,1.77
2019-01-18T17:36:32.528Z,1.60
2019-01-18T17:39:10.172Z,1.70
2019-01-18T17:41:53.657Z,1.50
2019-01-18T17:44:40.052Z,1.53
2019-01-18T17:47:11.740Z,1.53
2019-01-18T17:53:07.091Z,1.70
2019-01-18T17:55:38.757Z,1.67
2019-01-18T17:58:29.254Z,2.07
2019-01-18T18:01:10.104Z,2.10
2019-01-18T18:03:58.412Z,1.73
2019-01-18T18:06:48.359Z,1.63
2019-01-18T18:09:23.651Z,1.70
2019-01-18T18:12:12.198Z,1.83
2019-01-18T18:15:13.316Z,1.90
2019-01-18T18:17:47.414Z,1.90
2019-01-18T18:23:50.929Z,2.07
2019-01-18T18:26:59.668Z,1.80
2019-01-18T18:29:54.034Z,1.70
2019-01-18T18:32:40.571Z,1.70
2019-01-18T18:39:01.862Z,2.30
2019-01-18T18:42:05.295Z,2.30
2019-01-18T18:48:43.361Z,1.77
2019-01-18T18:51:49.702Z,2.13
2019-01-18T18:54:57.172Z,2.00
2019-01-18T19:00:52.892Z,1.70
2019-01-18T19:03:36.245Z,2.37
2019-01-18T19:06:32.259Z,2.43
2019-01-18T19:09:29.255Z,2.20
2019-01-18T19:12:26.079Z,2.00
2019-01-18T19:15:14.033Z,2.43
2019-01-18T19:17:52.681Z,2.50
2019-01-18T19:20:45.691Z,2.50
2019-01-18T19:23:23.325Z,1.90
2019-01-18T19:25:59.514Z,2.00
2019-01-18T19:35:19.277Z,2.50
2019-01-18T19:38:16.327Z,2.07
2019-01-18T19:40:55.424Z,2.67
2019-01-18T19:43:27.100Z,3.10
2019-01-18T19:46:04.847Z,2.37
2019-01-18T19:49:08.156Z,1.77
2019-01-18T19:52:02.991Z,2.00
2019-01-18T19:54:43.538Z,1.87
2019-01-18T19:57:27.239Z,2.00
2019-01-18T20:00:14.831Z,1.80
2019-01-18T20:03:03.028Z,2.13
2019-01-18T20:05:46.515Z,2.00
2019-01-18T20:08:23.038Z,2.10
2019-01-18T20:10:54.704Z,1.67
2019-01-18T20:13:53.227Z,1.90
2019-01-18T20:16:41.533Z,2.20
2019-01-18T20:19:31.137Z,1.70
2019-01-18T20:22:14.463Z,2.00
2019-01-18T20:24:52.448Z,1.97
2019-01-18T20:27:40.281Z,1.70
2019-01-18T20:30:44.174Z,1.70
2019-01-18T20:33:35.467Z,2.03
2019-01-18T20:36:13.327Z,1.73
2019-01-18T20:39:07.930Z,1.80
2019-01-18T20:42:00.433Z,2.03
2019-01-18T20:44:43.958Z,1.73
2019-01-18T20:47:42.899Z,1.80
2019-01-18T20:50:44.716Z,1.90
2019-01-18T20:53:37.327Z,2.00
2019-01-18T20:56:17.964Z,2.10
2019-01-18T20:59:11.407Z,2.20
2019-01-18T21:02:09.775Z,1.73
2019-01-18T21:04:47.441Z,2.00
2019-01-18T21:07:38.528Z,1.83
2019-01-18T21:10:26.288Z,2.10
2019-01-18T21:13:03.459Z,2.17
2019-01-18T21:16:11.351Z,1.90
2019-01-18T21:19:16.124Z,2.00
2019-01-18T21:22:07.408Z,1.87
2019-01-18T21:24:52.316Z,1.97
2019-01-18T21:27:35.016Z,2.23
2019-01-18T21:30:21.619Z,2.17
2019-01-18T21:33:14.454Z,2.00
2019-01-18T21:35:49.430Z,1.97
2019-01-18T21:38:23.557Z,2.23
2019-01-18T21:40:58.350Z,1.87
2019-01-18T21:44:06.533Z,2.10
2019-01-18T21:46:50.468Z,2.00
2019-01-18T21:49:24.736Z,2.20
2019-01-18T21:52:13.312Z,2.03
2019-01-18T21:54:45.118Z,1.93
2019-01-18T21:57:18.116Z,2.10
2019-01-18T21:59:58.635Z,2.17
2019-01-18T22:02:38.953Z,2.13
2019-01-18T22:05:16.563Z,2.20
2019-01-18T22:08:13.122Z,2.17
2019-01-18T22:10:59.716Z,2.20
2019-01-18T22:13:31.570Z,2.23
2019-01-18T22:16:18.372Z,2.00
2019-01-18T22:19:02.027Z,2.00
2019-01-18T22:21:40.354Z,1.80
2019-01-18T22:24:34.046Z,1.90
2019-01-18T22:27:16.285Z,2.00
2019-01-18T22:29:53.871Z,1.83
2019-01-18T22:32:43.393Z,2.07
2019-01-18T22:35:44.880Z,1.70
2019-01-18T22:38:31.195Z,2.40
2019-01-18T22:41:11.785Z,2.37
2019-01-18T22:43:44.852Z,1.90
2019-01-18T22:46:29.096Z,2.20
2019-01-18T22:49:04.322Z,2.10
2019-01-18T22:51:41.795Z,2.40
2019-01-18T22:54:24.161Z,2.10
2019-01-18T22:57:18.272Z,1.90
2019-01-18T22:59:55.860Z,2.07
2019-01-18T23:02:36.585Z,1.80
2019-01-18T23:08:40.114Z,2.10
2019-01-18T23:11:16.917Z,1.93
2019-01-18T23:14:12.392Z,1.90
2019-01-18T23:16:44.096Z,2.17
2019-01-18T23:19:23.428Z,1.63
2019-01-18T23:22:21.893Z,2.03
2019-01-18T23:24:58.766Z,1.87
2019-01-18T23:27:56.724Z,1.90
2019-01-18T23:30:30.818Z,1.63
2019-01-18T23:33:06.836Z,1.90
2019-01-18T23:35:51.557Z,1.90
2019-01-18T23:38:54.737Z,1.80
2019-01-18T23:41:32.471Z,1.87
2019-01-18T23:44:19.783Z,1.83
2019-01-18T23:47:02.230Z,1.80
2019-01-18T23:49:43.709Z,1.83
2019-01-18T23:52:26.473Z,1.77
2019-01-18T23:55:19.011Z,2.10
2019-01-18T23:58:03.287Z,2.23
